sensor_id;sensor_type;location;lat;lon;timestamp;pressure;altitude;pressure_sealevel;temperature;humidity
3780;BME280;1905;52.482;9.802;2023-05-03T00:01:16;102379.56;;;6.63;64.34
3780;BME280;1905;52.482;9.802;2023-05-03T00:03:43;102378.66;;;6.62;64.27
3780;BME280;1905;52.482;9.802;2023-05-03T00:06:12;102377.81;;;6.57;64.52
3780;BME280;1905;52.482;9.802;2023-05-03T00:08:41;102382.16;;;6.53;64.61
3780;BME280;1905;52.482;9.802;2023-05-03T00:11:09;102377.81;;;6.49;64.35
3780;BME280;1905;52.482;9.802;2023-05-03T00:13:36;102377.78;;;6.40;64.88
3780;BME280;1905;52.482;9.802;2023-05-03T00:16:05;102375.16;;;6.40;64.96
3780;BME280;1905;52.482;9.802;2023-05-03T00:18:32;102373.41;;;6.35;64.77
3780;BME280;1905;52.482;9.802;2023-05-03T00:21:00;102373.38;;;6.33;64.47
3780;BME280;1905;52.482;9.802;2023-05-03T00:23:27;102376.03;;;6.30;64.51
3780;BME280;1905;52.482;9.802;2023-05-03T00:25:57;102376.03;;;6.24;64.80
3780;BME280;1905;52.482;9.802;2023-05-03T00:28:25;102379.53;;;6.22;64.63
3780;BME280;1905;52.482;9.802;2023-05-03T00:30:53;102381.25;;;6.18;64.90
3780;BME280;1905;52.482;9.802;2023-05-03T00:33:20;102373.38;;;6.14;64.89
3780;BME280;1905;52.482;9.802;2023-05-03T00:35:48;102372.50;;;6.10;64.92
3780;BME280;1905;52.482;9.802;2023-05-03T00:38:15;102376.88;;;6.08;65.29
3780;BME280;1905;52.482;9.802;2023-05-03T00:40:43;102371.59;;;6.07;65.40
3780;BME280;1905;52.482;9.802;2023-05-03T00:43:12;102378.63;;;6.03;65.04
3780;BME280;1905;52.482;9.802;2023-05-03T00:45:39;102369.84;;;5.99;65.17
3780;BME280;1905;52.482;9.802;2023-05-03T00:48:07;102372.47;;;5.95;65.05
3780;BME280;1905;52.482;9.802;2023-05-03T00:50:35;102375.97;;;5.89;65.41
3780;BME280;1905;52.482;9.802;2023-05-03T00:53:03;102375.94;;;5.88;65.26
3780;BME280;1905;52.482;9.802;2023-05-03T00:55:32;102375.06;;;5.87;64.94
3780;BME280;1905;52.482;9.802;2023-05-03T00:57:59;102370.63;;;5.82;65.54
3780;BME280;1905;52.482;9.802;2023-05-03T01:00:28;102369.75;;;5.75;65.40
3780;BME280;1905;52.482;9.802;2023-05-03T01:02:56;102370.63;;;5.73;65.21
3780;BME280;1905;52.482;9.802;2023-05-03T01:05:27;102370.63;;;5.70;65.70
3780;BME280;1905;52.482;9.802;2023-05-03T01:08:02;102375.84;;;5.67;65.27
3780;BME280;1905;52.482;9.802;2023-05-03T01:10:39;102371.44;;;5.63;65.85
3780;BME280;1905;52.482;9.802;2023-05-03T01:13:13;102368.81;;;5.57;65.59
3780;BME280;1905;52.482;9.802;2023-05-03T01:15:53;102377.53;;;5.53;65.34
3780;BME280;1905;52.482;9.802;2023-05-03T01:18:29;102378.41;;;5.52;65.83
3780;BME280;1905;52.482;9.802;2023-05-03T01:20:58;102380.16;;;5.53;65.34
3780;BME280;1905;52.482;9.802;2023-05-03T01:23:32;102375.75;;;5.47;65.84
3780;BME280;1905;52.482;9.802;2023-05-03T01:26:13;102384.47;;;5.41;65.65
3780;BME280;1905;52.482;9.802;2023-05-03T01:28:40;102376.63;;;5.43;65.96
3780;BME280;1905;52.482;9.802;2023-05-03T01:31:08;102380.09;;;5.39;65.77
3780;BME280;1905;52.482;9.802;2023-05-03T01:33:43;102378.34;;;5.35;66.03
3780;BME280;1905;52.482;9.802;2023-05-03T01:36:20;102380.91;;;5.30;66.24
3780;BME280;1905;52.482;9.802;2023-05-03T01:38:49;102377.41;;;5.28;65.88
3780;BME280;1905;52.482;9.802;2023-05-03T01:41:18;102372.16;;;5.25;65.69
3780;BME280;1905;52.482;9.802;2023-05-03T01:43:47;102373.91;;;5.23;65.95
3780;BME280;1905;52.482;9.802;2023-05-03T01:46:15;102387.84;;;5.22;66.25
3780;BME280;1905;52.482;9.802;2023-05-03T01:48:43;102391.38;;;5.24;65.98
3780;BME280;1905;52.482;9.802;2023-05-03T01:51:11;102387.81;;;5.19;66.41
3780;BME280;1905;52.482;9.802;2023-05-03T01:53:38;102384.31;;;5.14;66.05
3780;BME280;1905;52.482;9.802;2023-05-03T01:56:07;102393.00;;;5.07;66.23
3780;BME280;1905;52.482;9.802;2023-05-03T01:58:36;102395.59;;;5.06;66.20
3780;BME280;1905;52.482;9.802;2023-05-03T02:01:04;102394.72;;;5.02;65.48
3780;BME280;1905;52.482;9.802;2023-05-03T02:03:32;102388.56;;;4.96;66.48
3780;BME280;1905;52.482;9.802;2023-05-03T02:06:00;102397.28;;;4.98;66.52
3780;BME280;1905;52.482;9.802;2023-05-03T02:08:28;102392.91;;;4.95;66.37
3780;BME280;1905;52.482;9.802;2023-05-03T02:10:56;102393.75;;;4.88;65.75
3780;BME280;1905;52.482;9.802;2023-05-03T02:13:23;102394.63;;;4.90;66.27
3780;BME280;1905;52.482;9.802;2023-05-03T02:15:52;102406.81;;;4.85;66.07
3780;BME280;1905;52.482;9.802;2023-05-03T02:18:21;102415.50;;;4.84;66.47
3780;BME280;1905;52.482;9.802;2023-05-03T02:20:50;102409.38;;;4.79;66.60
3780;BME280;1905;52.482;9.802;2023-05-03T02:23:17;102409.38;;;4.79;66.57
3780;BME280;1905;52.482;9.802;2023-05-03T02:25:45;102411.97;;;4.76;66.37
3780;BME280;1905;52.482;9.802;2023-05-03T02:28:12;102414.56;;;4.71;65.93
3780;BME280;1905;52.482;9.802;2023-05-03T02:30:41;102414.56;;;4.70;66.48
3780;BME280;1905;52.482;9.802;2023-05-03T02:33:09;102419.75;;;4.68;66.97
3780;BME280;1905;52.482;9.802;2023-05-03T02:35:38;102425.81;;;4.63;66.76
3780;BME280;1905;52.482;9.802;2023-05-03T02:38:05;102425.81;;;4.63;66.77
3780;BME280;1905;52.482;9.802;2023-05-03T02:40:33;102422.28;;;4.58;66.17
3780;BME280;1905;52.482;9.802;2023-05-03T02:43:00;102420.50;;;4.57;66.79
3780;BME280;1905;52.482;9.802;2023-05-03T02:45:30;102423.97;;;4.53;67.08
3780;BME280;1905;52.482;9.802;2023-05-03T02:47:57;102429.19;;;4.50;67.04
3780;BME280;1905;52.482;9.802;2023-05-03T02:50:27;102437.00;;;4.47;67.04
3780;BME280;1905;52.482;9.802;2023-05-03T02:52:54;102441.34;;;4.46;66.44
3780;BME280;1905;52.482;9.802;2023-05-03T02:55:22;102438.69;;;4.42;66.84
3780;BME280;1905;52.482;9.802;2023-05-03T02:57:50;102441.31;;;4.42;67.07
3780;BME280;1905;52.482;9.802;2023-05-03T03:00:19;102437.81;;;4.40;66.67
3780;BME280;1905;52.482;9.802;2023-05-03T03:02:46;102443.00;;;4.37;67.01
3780;BME280;1905;52.482;9.802;2023-05-03T03:05:14;102442.09;;;4.33;67.08
3780;BME280;1905;52.482;9.802;2023-05-03T03:07:49;102441.19;;;4.27;66.92
3780;BME280;1905;52.482;9.802;2023-05-03T03:10:16;102430.69;;;4.25;66.90
3780;BME280;1905;52.482;9.802;2023-05-03T03:12:44;102437.63;;;4.25;67.18
3780;BME280;1905;52.482;9.802;2023-05-03T03:15:21;102437.56;;;4.18;66.78
3780;BME280;1905;52.482;9.802;2023-05-03T03:17:49;102433.22;;;4.19;67.49
3780;BME280;1905;52.482;9.802;2023-05-03T03:20:17;102427.09;;;4.15;67.37
3780;BME280;1905;52.482;9.802;2023-05-03T03:22:47;102432.34;;;4.15;67.64
3780;BME280;1905;52.482;9.802;2023-05-03T03:25:15;102433.16;;;4.10;67.42
3780;BME280;1905;52.482;9.802;2023-05-03T03:27:43;102434.03;;;4.13;67.68
3780;BME280;1905;52.482;9.802;2023-05-03T03:30:11;102434.00;;;4.10;66.57
3780;BME280;1905;52.482;9.802;2023-05-03T03:32:51;102437.44;;;4.06;67.18
3780;BME280;1905;52.482;9.802;2023-05-03T03:35:26;102440.88;;;4.02;67.16
3780;BME280;1905;52.482;9.802;2023-05-03T03:37:55;102433.91;;;4.01;66.81
3780;BME280;1905;52.482;9.802;2023-05-03T03:40:24;102438.19;;;3.93;66.63
3780;BME280;1905;52.482;9.802;2023-05-03T03:42:54;102436.41;;;3.92;67.91
3780;BME280;1905;52.482;9.802;2023-05-03T03:45:22;102430.34;;;3.93;67.19
3780;BME280;1905;52.482;9.802;2023-05-03T03:47:50;102426.84;;;3.94;67.18
3780;BME280;1905;52.482;9.802;2023-05-03T03:50:21;102430.28;;;3.90;67.62
3780;BME280;1905;52.482;9.802;2023-05-03T03:52:48;102423.25;;;3.86;66.98
3780;BME280;1905;52.482;9.802;2023-05-03T03:55:17;102435.44;;;3.84;67.74
3780;BME280;1905;52.482;9.802;2023-05-03T03:57:47;102430.22;;;3.84;67.39
3780;BME280;1905;52.482;9.802;2023-05-03T04:00:15;102424.09;;;3.84;67.09
3780;BME280;1905;52.482;9.802;2023-05-03T04:02:50;102435.41;;;3.81;67.94
3780;BME280;1905;52.482;9.802;2023-05-03T04:05:18;102431.03;;;3.77;67.56
3780;BME280;1905;52.482;9.802;2023-05-03T04:07:46;102427.53;;;3.78;67.36
3780;BME280;1905;52.482;9.802;2023-05-03T04:10:17;102428.38;;;3.74;67.91
3780;BME280;1905;52.482;9.802;2023-05-03T04:12:44;102430.09;;;3.72;67.44
3780;BME280;1905;52.482;9.802;2023-05-03T04:15:14;102424.88;;;3.72;67.98
3780;BME280;1905;52.482;9.802;2023-05-03T04:17:44;102428.31;;;3.71;66.78
3780;BME280;1905;52.482;9.802;2023-05-03T04:20:12;102426.56;;;3.70;67.78
3780;BME280;1905;52.482;9.802;2023-05-03T04:22:44;102429.16;;;3.69;68.14
3780;BME280;1905;52.482;9.802;2023-05-03T04:25:14;102426.50;;;3.67;67.15
3780;BME280;1905;52.482;9.802;2023-05-03T04:27:48;102429.13;;;3.67;68.21
3780;BME280;1905;52.482;9.802;2023-05-03T04:30:16;102429.13;;;3.66;67.13
3780;BME280;1905;52.482;9.802;2023-05-03T04:32:48;102433.47;;;3.65;68.01
3780;BME280;1905;52.482;9.802;2023-05-03T04:35:16;102425.63;;;3.64;67.79
3780;BME280;1905;52.482;9.802;2023-05-03T04:37:45;102436.13;;;3.68;68.05
3780;BME280;1905;52.482;9.802;2023-05-03T04:40:17;102428.19;;;3.62;68.22
3780;BME280;1905;52.482;9.802;2023-05-03T04:42:52;102440.41;;;3.63;68.30
3780;BME280;1905;52.482;9.802;2023-05-03T04:45:19;102446.44;;;3.59;67.38
3780;BME280;1905;52.482;9.802;2023-05-03T04:47:48;102435.09;;;3.57;68.21
3780;BME280;1905;52.482;9.802;2023-05-03T04:50:15;102437.75;;;3.60;68.30
3780;BME280;1905;52.482;9.802;2023-05-03T04:52:47;102445.59;;;3.61;67.95
3780;BME280;1905;52.482;9.802;2023-05-03T04:55:16;102455.25;;;3.66;67.62
3780;BME280;1905;52.482;9.802;2023-05-03T04:57:45;102450.84;;;3.63;67.59
3780;BME280;1905;52.482;9.802;2023-05-03T05:00:15;102455.09;;;3.56;68.17
3780;BME280;1905;52.482;9.802;2023-05-03T05:02:49;102463.03;;;3.63;67.91
3780;BME280;1905;52.482;9.802;2023-05-03T05:05:18;102463.91;;;3.65;67.73
3780;BME280;1905;52.482;9.802;2023-05-03T05:07:46;102456.97;;;3.65;68.19
3780;BME280;1905;52.482;9.802;2023-05-03T05:10:16;102460.41;;;3.63;68.15
3780;BME280;1905;52.482;9.802;2023-05-03T05:12:44;102461.31;;;3.63;68.31
3780;BME280;1905;52.482;9.802;2023-05-03T05:15:12;102461.34;;;3.66;67.46
3780;BME280;1905;52.482;9.802;2023-05-03T05:17:41;102460.50;;;3.70;67.53
3780;BME280;1905;52.482;9.802;2023-05-03T05:20:10;102461.34;;;3.66;67.20
3780;BME280;1905;52.482;9.802;2023-05-03T05:22:43;102462.16;;;3.62;67.19
3780;BME280;1905;52.482;9.802;2023-05-03T05:25:10;102474.38;;;3.63;67.57
3780;BME280;1905;52.482;9.802;2023-05-03T05:27:39;102473.53;;;3.64;66.71
3780;BME280;1905;52.482;9.802;2023-05-03T05:30:08;102467.38;;;3.60;67.05
3780;BME280;1905;52.482;9.802;2023-05-03T05:32:38;102469.25;;;3.71;66.69
3780;BME280;1905;52.482;9.802;2023-05-03T05:35:10;102474.41;;;3.68;66.99
3780;BME280;1905;52.482;9.802;2023-05-03T05:37:41;102477.91;;;3.70;66.89
3780;BME280;1905;52.482;9.802;2023-05-03T05:40:09;102473.63;;;3.73;66.95
3780;BME280;1905;52.482;9.802;2023-05-03T05:42:43;102480.63;;;3.74;67.83
3780;BME280;1905;52.482;9.802;2023-05-03T05:45:11;102475.38;;;3.74;70.49
3780;BME280;1905;52.482;9.802;2023-05-03T05:47:40;102478.94;;;3.79;68.02
3780;BME280;1905;52.482;9.802;2023-05-03T05:50:09;102476.38;;;3.82;69.96
3780;BME280;1905;52.482;9.802;2023-05-03T05:52:49;102483.34;;;3.85;68.48
3780;BME280;1905;52.482;9.802;2023-05-03T05:55:17;102490.41;;;3.92;72.73
3780;BME280;1905;52.482;9.802;2023-05-03T05:57:45;102491.28;;;3.92;68.79
3780;BME280;1905;52.482;9.802;2023-05-03T06:00:15;102489.66;;;4.00;72.76
3780;BME280;1905;52.482;9.802;2023-05-03T06:02:44;102485.34;;;4.05;69.94
3780;BME280;1905;52.482;9.802;2023-05-03T06:05:16;102490.63;;;4.07;73.15
3780;BME280;1905;52.482;9.802;2023-05-03T06:07:43;102490.69;;;4.14;70.29
3780;BME280;1905;52.482;9.802;2023-05-03T06:10:13;102489.00;;;4.18;74.25
3780;BME280;1905;52.482;9.802;2023-05-03T06:12:45;102500.34;;;4.21;73.51
3780;BME280;1905;52.482;9.802;2023-05-03T06:15:17;102499.59;;;4.29;72.62
3780;BME280;1905;52.482;9.802;2023-05-03T06:17:45;102496.94;;;4.27;70.32
3780;BME280;1905;52.482;9.802;2023-05-03T06:20:13;102505.81;;;4.40;72.10
3780;BME280;1905;52.482;9.802;2023-05-03T06:22:42;102510.16;;;4.41;71.16
3780;BME280;1905;52.482;9.802;2023-05-03T06:25:10;102507.66;;;4.50;73.45
3780;BME280;1905;52.482;9.802;2023-05-03T06:27:45;102509.50;;;4.58;75.09
3780;BME280;1905;52.482;9.802;2023-05-03T06:30:13;102514.78;;;4.67;74.69
3780;BME280;1905;52.482;9.802;2023-05-03T06:32:41;102507.91;;;4.74;73.36
3780;BME280;1905;52.482;9.802;2023-05-03T06:35:10;102508.00;;;4.83;75.62
3780;BME280;1905;52.482;9.802;2023-05-03T06:37:39;102508.09;;;4.94;74.85
3780;BME280;1905;52.482;9.802;2023-05-03T06:40:09;102513.34;;;4.98;75.35
3780;BME280;1905;52.482;9.802;2023-05-03T06:42:36;102510.78;;;5.06;75.69
3780;BME280;1905;52.482;9.802;2023-05-03T06:45:14;102517.03;;;5.18;74.62
3780;BME280;1905;52.482;9.802;2023-05-03T06:47:43;102511.81;;;5.21;75.18
3780;BME280;1905;52.482;9.802;2023-05-03T06:50:11;102516.22;;;5.27;75.10
3780;BME280;1905;52.482;9.802;2023-05-03T06:52:39;102512.78;;;5.38;74.40
3780;BME280;1905;52.482;9.802;2023-05-03T06:55:07;102512.03;;;5.52;74.95
3780;BME280;1905;52.482;9.802;2023-05-03T06:57:34;102508.63;;;5.65;74.41
3780;BME280;1905;52.482;9.802;2023-05-03T07:00:03;102505.19;;;5.78;72.44
3780;BME280;1905;52.482;9.802;2023-05-03T07:02:33;102511.41;;;5.89;72.44
3780;BME280;1905;52.482;9.802;2023-05-03T07:05:01;102507.09;;;6.00;71.60
3780;BME280;1905;52.482;9.802;2023-05-03T07:07:29;102501.03;;;6.16;71.82
3780;BME280;1905;52.482;9.802;2023-05-03T07:09:56;102505.41;;;6.23;71.10
3780;BME280;1905;52.482;9.802;2023-05-03T07:12:24;102503.69;;;6.31;70.85
3780;BME280;1905;52.482;9.802;2023-05-03T07:14:53;102506.38;;;6.43;70.17
3780;BME280;1905;52.482;9.802;2023-05-03T07:17:22;102496.78;;;6.57;70.37
3780;BME280;1905;52.482;9.802;2023-05-03T07:19:51;102502.94;;;6.73;71.04
3780;BME280;1905;52.482;9.802;2023-05-03T07:22:19;102498.56;;;6.86;69.01
3780;BME280;1905;52.482;9.802;2023-05-03T07:24:50;102498.56;;;6.98;67.04
3780;BME280;1905;52.482;9.802;2023-05-03T07:27:18;102503.81;;;7.07;67.34
3780;BME280;1905;52.482;9.802;2023-05-03T07:29:45;102506.44;;;7.17;67.18
3780;BME280;1905;52.482;9.802;2023-05-03T07:32:13;102502.06;;;7.33;66.42
3780;BME280;1905;52.482;9.802;2023-05-03T07:34:40;102501.19;;;7.42;65.50
3780;BME280;1905;52.482;9.802;2023-05-03T07:37:09;102505.53;;;7.53;65.91
3780;BME280;1905;52.482;9.802;2023-05-03T07:39:38;102499.38;;;7.62;65.28
3780;BME280;1905;52.482;9.802;2023-05-03T07:42:05;102501.97;;;7.78;65.08
3780;BME280;1905;52.482;9.802;2023-05-03T07:44:33;102494.06;;;7.91;64.58
3780;BME280;1905;52.482;9.802;2023-05-03T07:47:00;102486.09;;;8.06;63.97
3780;BME280;1905;52.482;9.802;2023-05-03T07:49:28;102490.41;;;8.16;63.63
3780;BME280;1905;52.482;9.802;2023-05-03T07:51:57;102495.66;;;8.25;63.66
3780;BME280;1905;52.482;9.802;2023-05-03T07:54:26;102490.34;;;8.35;62.88
3780;BME280;1905;52.482;9.802;2023-05-03T07:56:53;102489.38;;;8.53;62.95
3780;BME280;1905;52.482;9.802;2023-05-03T07:59:21;102487.53;;;8.64;62.43
3780;BME280;1905;52.482;9.802;2023-05-03T08:01:48;102483.94;;;8.80;61.73
3780;BME280;1905;52.482;9.802;2023-05-03T08:04:16;102478.59;;;8.88;63.03
3780;BME280;1905;52.482;9.802;2023-05-03T08:06:44;102474.94;;;9.03;62.25
3780;BME280;1905;52.482;9.802;2023-05-03T08:09:11;102474.88;;;9.12;60.76
3780;BME280;1905;52.482;9.802;2023-05-03T08:11:40;102480.00;;;9.27;61.80
3780;BME280;1905;52.482;9.802;2023-05-03T08:14:09;102482.44;;;9.46;62.59
3780;BME280;1905;52.482;9.802;2023-05-03T08:16:37;102484.94;;;9.60;61.82
3780;BME280;1905;52.482;9.802;2023-05-03T08:19:05;102479.53;;;9.75;61.46
3780;BME280;1905;52.482;9.802;2023-05-03T08:21:33;102481.13;;;9.88;59.36
3780;BME280;1905;52.482;9.802;2023-05-03T08:24:00;102476.53;;;10.04;61.09
3780;BME280;1905;52.482;9.802;2023-05-03T08:26:31;102484.25;;;10.21;61.63
3780;BME280;1905;52.482;9.802;2023-05-03T08:29:00;102480.56;;;10.34;58.53
3780;BME280;1905;52.482;9.802;2023-05-03T08:31:28;102487.28;;;10.56;61.16
3780;BME280;1905;52.482;9.802;2023-05-03T08:33:57;102488.75;;;10.75;60.29
3780;BME280;1905;52.482;9.802;2023-05-03T08:36:24;102486.78;;;10.89;58.80
3780;BME280;1905;52.482;9.802;2023-05-03T08:38:52;102479.63;;;10.94;57.60
3780;BME280;1905;52.482;9.802;2023-05-03T08:41:21;102482.88;;;11.11;57.98
3780;BME280;1905;52.482;9.802;2023-05-03T08:43:57;102479.72;;;11.40;63.87
3780;BME280;1905;52.482;9.802;2023-05-03T08:46:26;102483.78;;;11.58;60.58
3780;BME280;1905;52.482;9.802;2023-05-03T08:48:54;102483.69;;;11.64;57.10
3780;BME280;1905;52.482;9.802;2023-05-03T08:51:23;102485.50;;;11.62;57.84
3780;BME280;1905;52.482;9.802;2023-05-03T08:53:51;102483.38;;;11.82;61.67
3780;BME280;1905;52.482;9.802;2023-05-03T08:56:23;102469.84;;;11.96;61.79
3780;BME280;1905;52.482;9.802;2023-05-03T08:58:51;102474.94;;;12.05;61.94
3780;BME280;1905;52.482;9.802;2023-05-03T09:01:19;102477.50;;;12.09;60.93
3780;BME280;1905;52.482;9.802;2023-05-03T09:03:49;102470.28;;;12.17;61.40
3780;BME280;1905;52.482;9.802;2023-05-03T09:06:19;102471.03;;;12.22;60.66
3780;BME280;1905;52.482;9.802;2023-05-03T09:08:47;102466.53;;;12.26;60.05
3780;BME280;1905;52.482;9.802;2023-05-03T09:11:22;102461.97;;;12.32;60.60
3780;BME280;1905;52.482;9.802;2023-05-03T09:13:51;102470.69;;;12.39;60.75
3780;BME280;1905;52.482;9.802;2023-05-03T09:16:23;102462.69;;;12.40;56.93
3780;BME280;1905;52.482;9.802;2023-05-03T09:18:57;102445.66;;;12.50;58.81
3780;BME280;1905;52.482;9.802;2023-05-03T09:21:25;102448.16;;;12.57;56.66
3780;BME280;1905;52.482;9.802;2023-05-03T09:23:53;102449.69;;;12.67;58.52
3780;BME280;1905;52.482;9.802;2023-05-03T09:26:27;102461.03;;;12.73;58.07
3780;BME280;1905;52.482;9.802;2023-05-03T09:28:57;102458.25;;;12.78;55.94
3780;BME280;1905;52.482;9.802;2023-05-03T09:31:25;102458.19;;;12.81;56.70
3780;BME280;1905;52.482;9.802;2023-05-03T09:33:53;102453.69;;;12.83;55.00
3780;BME280;1905;52.482;9.802;2023-05-03T09:36:23;102456.22;;;12.89;56.21
3780;BME280;1905;52.482;9.802;2023-05-03T09:38:51;102459.63;;;12.94;55.70
3780;BME280;1905;52.482;9.802;2023-05-03T09:41:25;102462.28;;;12.94;53.87
3780;BME280;1905;52.482;9.802;2023-05-03T09:43:54;102459.72;;;12.91;53.92
3780;BME280;1905;52.482;9.802;2023-05-03T09:46:24;102460.56;;;12.93;53.00
3780;BME280;1905;52.482;9.802;2023-05-03T09:48:53;102461.16;;;13.04;54.53
3780;BME280;1905;52.482;9.802;2023-05-03T09:51:23;102456.91;;;12.97;51.81
3780;BME280;1905;52.482;9.802;2023-05-03T09:53:52;102451.50;;;13.01;54.14
3780;BME280;1905;52.482;9.802;2023-05-03T09:56:20;102448.72;;;13.06;54.81
3780;BME280;1905;52.482;9.802;2023-05-03T09:58:52;102446.97;;;13.05;53.38
3780;BME280;1905;52.482;9.802;2023-05-03T10:01:21;102439.06;;;13.02;53.35
3780;BME280;1905;52.482;9.802;2023-05-03T10:03:50;102445.31;;;13.01;53.32
3780;BME280;1905;52.482;9.802;2023-05-03T10:06:24;102447.03;;;13.02;54.10
3780;BME280;1905;52.482;9.802;2023-05-03T10:08:59;102438.25;;;13.00;53.77
3780;BME280;1905;52.482;9.802;2023-05-03T10:11:27;102451.50;;;13.00;53.30
3780;BME280;1905;52.482;9.802;2023-05-03T10:13:55;102442.69;;;12.99;53.97
3780;BME280;1905;52.482;9.802;2023-05-03T10:16:25;102435.72;;;12.95;52.36
3780;BME280;1905;52.482;9.802;2023-05-03T10:18:58;102438.25;;;13.00;53.75
3780;BME280;1905;52.482;9.802;2023-05-03T10:21:41;102429.47;;;12.98;52.97
3780;BME280;1905;52.482;9.802;2023-05-03T10:24:15;102426.94;;;12.93;52.46
3780;BME280;1905;52.482;9.802;2023-05-03T10:26:44;102430.63;;;12.88;53.44
3780;BME280;1905;52.482;9.802;2023-05-03T10:29:43;102418.94;;;12.95;55.02
3780;BME280;1905;52.482;9.802;2023-05-03T10:32:28;102415.53;;;12.90;53.56
3780;BME280;1905;52.482;9.802;2023-05-03T10:34:59;102420.78;;;12.93;53.34
3780;BME280;1905;52.482;9.802;2023-05-03T10:37:32;102419.00;;;12.92;53.09
3780;BME280;1905;52.482;9.802;2023-05-03T10:40:07;102410.09;;;12.96;53.50
3780;BME280;1905;52.482;9.802;2023-05-03T10:42:36;102417.38;;;12.88;52.97
3780;BME280;1905;52.482;9.802;2023-05-03T10:45:07;102413.78;;;12.89;54.20
3780;BME280;1905;52.482;9.802;2023-05-03T10:47:35;102415.53;;;12.90;52.68
3780;BME280;1905;52.482;9.802;2023-05-03T10:50:25;102410.16;;;12.93;54.39
3780;BME280;1905;52.482;9.802;2023-05-03T10:52:54;102411.06;;;12.92;53.75
3780;BME280;1905;52.482;9.802;2023-05-03T10:55:22;102410.25;;;12.90;53.01
3780;BME280;1905;52.482;9.802;2023-05-03T10:57:53;102413.78;;;12.89;52.92
3780;BME280;1905;52.482;9.802;2023-05-03T11:00:23;102409.41;;;12.88;53.77
3780;BME280;1905;52.482;9.802;2023-05-03T11:03:07;102403.09;;;12.92;52.81
3780;BME280;1905;52.482;9.802;2023-05-03T11:05:36;102398.75;;;12.89;52.40
3780;BME280;1905;52.482;9.802;2023-05-03T11:08:10;102394.31;;;12.90;53.52
3780;BME280;1905;52.482;9.802;2023-05-03T11:10:38;102396.78;;;12.97;53.22
3780;BME280;1905;52.482;9.802;2023-05-03T11:13:06;102399.41;;;12.99;53.04
3780;BME280;1905;52.482;9.802;2023-05-03T11:15:34;102397.66;;;12.98;54.05
3780;BME280;1905;52.482;9.802;2023-05-03T11:18:04;102389.72;;;12.96;53.53
3780;BME280;1905;52.482;9.802;2023-05-03T11:20:32;102401.19;;;12.97;52.76
3780;BME280;1905;52.482;9.802;2023-05-03T11:23:00;102392.41;;;12.95;52.92
3780;BME280;1905;52.482;9.802;2023-05-03T11:25:29;102387.03;;;12.98;53.32
3780;BME280;1905;52.482;9.802;2023-05-03T11:27:58;102386.16;;;12.97;53.48
3780;BME280;1905;52.482;9.802;2023-05-03T11:30:26;102381.72;;;12.98;54.21
3780;BME280;1905;52.482;9.802;2023-05-03T11:32:54;102379.00;;;13.01;52.95
3780;BME280;1905;52.482;9.802;2023-05-03T11:35:22;102379.81;;;13.03;52.35
3780;BME280;1905;52.482;9.802;2023-05-03T11:37:52;102366.66;;;13.00;53.23
3780;BME280;1905;52.482;9.802;2023-05-03T11:40:20;102365.75;;;13.01;53.61
3780;BME280;1905;52.482;9.802;2023-05-03T11:42:52;102360.31;;;13.07;53.92
3780;BME280;1905;52.482;9.802;2023-05-03T11:45:22;102354.91;;;13.10;53.63
3780;BME280;1905;52.482;9.802;2023-05-03T11:47:50;102358.31;;;13.15;52.89
3780;BME280;1905;52.482;9.802;2023-05-03T11:50:25;102368.72;;;13.23;52.80
3780;BME280;1905;52.482;9.802;2023-05-03T11:52:53;102362.53;;;13.22;52.48
3780;BME280;1905;52.482;9.802;2023-05-03T11:55:22;102363.41;;;13.23;53.03
3780;BME280;1905;52.482;9.802;2023-05-03T11:57:49;102365.03;;;13.28;52.98
3780;BME280;1905;52.482;9.802;2023-05-03T12:00:19;102358.84;;;13.28;52.41
3780;BME280;1905;52.482;9.802;2023-05-03T12:02:48;102361.44;;;13.29;52.85
3780;BME280;1905;52.482;9.802;2023-05-03T12:05:16;102363.13;;;13.33;51.97
3780;BME280;1905;52.482;9.802;2023-05-03T12:07:44;102358.69;;;13.34;52.78
3780;BME280;1905;52.482;9.802;2023-05-03T12:10:14;102352.34;;;13.38;53.35
3780;BME280;1905;52.482;9.802;2023-05-03T12:12:53;102348.75;;;13.40;52.64
3780;BME280;1905;52.482;9.802;2023-05-03T12:15:28;102347.03;;;13.38;53.47
3780;BME280;1905;52.482;9.802;2023-05-03T12:17:59;102341.63;;;13.42;51.93
3780;BME280;1905;52.482;9.802;2023-05-03T12:20:30;102353.81;;;13.49;52.48
3780;BME280;1905;52.482;9.802;2023-05-03T12:23:01;102341.34;;;13.51;52.71
3780;BME280;1905;52.482;9.802;2023-05-03T12:25:31;102334.19;;;13.53;53.88
3780;BME280;1905;52.482;9.802;2023-05-03T12:28:03;102327.84;;;13.59;52.86
3780;BME280;1905;52.482;9.802;2023-05-03T12:30:35;102326.91;;;13.61;52.97
3780;BME280;1905;52.482;9.802;2023-05-03T12:33:06;102321.38;;;13.67;52.62
3780;BME280;1905;52.482;9.802;2023-05-03T12:35:36;102316.00;;;13.70;52.81
3780;BME280;1905;52.482;9.802;2023-05-03T12:38:06;102321.03;;;13.80;52.36
3780;BME280;1905;52.482;9.802;2023-05-03T12:40:35;102318.22;;;13.84;52.50
3780;BME280;1905;52.482;9.802;2023-05-03T12:43:04;102313.69;;;13.88;51.67
3780;BME280;1905;52.482;9.802;2023-05-03T12:45:32;102308.47;;;13.85;53.10
3780;BME280;1905;52.482;9.802;2023-05-03T12:48:02;102305.88;;;13.83;53.82
3780;BME280;1905;52.482;9.802;2023-05-03T12:50:29;102310.00;;;13.92;52.52
3780;BME280;1905;52.482;9.802;2023-05-03T12:52:59;102306.25;;;13.99;51.63
3780;BME280;1905;52.482;9.802;2023-05-03T12:55:28;102300.75;;;14.05;54.08
3780;BME280;1905;52.482;9.802;2023-05-03T12:58:01;102300.50;;;14.12;54.26
3780;BME280;1905;52.482;9.802;2023-05-03T13:00:34;102303.91;;;14.16;55.31
3780;BME280;1905;52.482;9.802;2023-05-03T13:03:04;102307.25;;;14.22;54.09
3780;BME280;1905;52.482;9.802;2023-05-03T13:05:35;102307.00;;;14.30;51.94
3780;BME280;1905;52.482;9.802;2023-05-03T13:08:03;102303.28;;;14.37;53.61
3780;BME280;1905;52.482;9.802;2023-05-03T13:10:36;102293.28;;;14.44;53.88
3780;BME280;1905;52.482;9.802;2023-05-03T13:13:04;102281.47;;;14.52;53.14
3780;BME280;1905;52.482;9.802;2023-05-03T13:15:33;102281.28;;;14.57;53.96
3780;BME280;1905;52.482;9.802;2023-05-03T13:18:01;102280.28;;;14.61;50.46
3780;BME280;1905;52.482;9.802;2023-05-03T13:20:31;102279.91;;;14.71;52.95
3780;BME280;1905;52.482;9.802;2023-05-03T13:22:59;102277.75;;;14.82;54.10
3780;BME280;1905;52.482;9.802;2023-05-03T13:25:27;102270.34;;;14.90;54.78
3780;BME280;1905;52.482;9.802;2023-05-03T13:27:54;102273.50;;;15.02;53.47
3780;BME280;1905;52.482;9.802;2023-05-03T13:30:22;102268.66;;;15.13;54.28